sensor_id;sensor_type;location;lat;lon;timestamp;P1;durP1;ratioP1;P2;durP2;ratioP2
56712;SDS011;42589;45.536;9.032;2023-03-23T00:01:28;8.60;;;7.43;;
56712;SDS011;42589;45.536;9.032;2023-03-23T00:04:36;11.00;;;7.65;;
56712;SDS011;42589;45.536;9.032;2023-03-23T00:07:37;11.35;;;8.32;;
56712;SDS011;42589;45.536;9.032;2023-03-23T00:10:38;10.38;;;8.20;;
56712;SDS011;42589;45.536;9.032;2023-03-23T00:13:40;10.00;;;8.60;;
56712;SDS011;42589;45.536;9.032;2023-03-23T00:16:44;10.60;;;8.20;;
56712;SDS011;42589;45.536;9.032;2023-03-23T00:19:44;11.15;;;8.88;;
56712;SDS011;42589;45.536;9.032;2023-03-23T00:22:46;11.23;;;8.02;;
56712;SDS011;42589;45.536;9.032;2023-03-23T00:25:47;13.05;;;10.75;;
56712;SDS011;42589;45.536;9.032;2023-03-23T00:28:49;10.20;;;8.63;;
56712;SDS011;42589;45.536;9.032;2023-03-23T00:31:51;11.50;;;9.68;;
56712;SDS011;42589;45.536;9.032;2023-03-23T00:34:55;9.65;;;8.48;;
56712;SDS011;42589;45.536;9.032;2023-03-23T00:37:58;9.15;;;7.93;;
56712;SDS011;42589;45.536;9.032;2023-03-23T00:41:00;12.98;;;9.15;;
56712;SDS011;42589;45.536;9.032;2023-03-23T00:44:03;11.73;;;9.02;;
56712;SDS011;42589;45.536;9.032;2023-03-23T00:47:03;13.05;;;9.48;;
56712;SDS011;42589;45.536;9.032;2023-03-23T00:50:05;12.50;;;9.07;;
56712;SDS011;42589;45.536;9.032;2023-03-23T00:53:06;13.48;;;10.30;;
56712;SDS011;42589;45.536;9.032;2023-03-23T00:56:07;15.05;;;12.23;;
56712;SDS011;42589;45.536;9.032;2023-03-23T00:59:09;16.48;;;12.23;;
56712;SDS011;42589;45.536;9.032;2023-03-23T01:02:10;13.77;;;11.55;;
56712;SDS011;42589;45.536;9.032;2023-03-23T01:05:11;14.82;;;11.48;;
56712;SDS011;42589;45.536;9.032;2023-03-23T01:08:12;13.75;;;11.05;;
56712;SDS011;42589;45.536;9.032;2023-03-23T01:11:14;14.25;;;11.40;;
56712;SDS011;42589;45.536;9.032;2023-03-23T01:14:17;16.90;;;12.38;;
56712;SDS011;42589;45.536;9.032;2023-03-23T01:17:20;16.98;;;11.57;;
56712;SDS011;42589;45.536;9.032;2023-03-23T01:20:22;15.52;;;12.38;;
56712;SDS011;42589;45.536;9.032;2023-03-23T01:23:23;12.93;;;11.52;;
56712;SDS011;42589;45.536;9.032;2023-03-23T01:26:25;14.98;;;12.30;;
56712;SDS011;42589;45.536;9.032;2023-03-23T01:29:27;15.38;;;12.82;;
56712;SDS011;42589;45.536;9.032;2023-03-23T01:32:28;15.75;;;12.38;;
56712;SDS011;42589;45.536;9.032;2023-03-23T01:35:29;15.38;;;12.18;;
56712;SDS011;42589;45.536;9.032;2023-03-23T01:38:31;17.38;;;13.10;;
56712;SDS011;42589;45.536;9.032;2023-03-23T01:41:32;17.70;;;13.00;;
56712;SDS011;42589;45.536;9.032;2023-03-23T01:47:35;15.43;;;11.43;;
56712;SDS011;42589;45.536;9.032;2023-03-23T01:50:58;16.67;;;12.55;;
56712;SDS011;42589;45.536;9.032;2023-03-23T01:54:00;16.10;;;12.13;;
56712;SDS011;42589;45.536;9.032;2023-03-23T01:57:04;18.10;;;12.00;;
56712;SDS011;42589;45.536;9.032;2023-03-23T02:00:11;16.58;;;12.38;;
56712;SDS011;42589;45.536;9.032;2023-03-23T02:03:17;17.10;;;12.05;;
56712;SDS011;42589;45.536;9.032;2023-03-23T02:06:18;19.42;;;12.07;;
56712;SDS011;42589;45.536;9.032;2023-03-23T02:09:19;14.93;;;11.45;;
56712;SDS011;42589;45.536;9.032;2023-03-23T02:12:21;16.58;;;12.27;;
56712;SDS011;42589;45.536;9.032;2023-03-23T02:15:22;16.77;;;12.25;;
56712;SDS011;42589;45.536;9.032;2023-03-23T02:18:29;16.55;;;11.60;;
56712;SDS011;42589;45.536;9.032;2023-03-23T02:28:48;17.80;;;11.82;;
56712;SDS011;42589;45.536;9.032;2023-03-23T02:38:39;18.10;;;13.00;;
56712;SDS011;42589;45.536;9.032;2023-03-23T02:41:54;17.48;;;13.48;;
56712;SDS011;42589;45.536;9.032;2023-03-23T02:45:04;20.52;;;14.30;;
56712;SDS011;42589;45.536;9.032;2023-03-23T02:48:07;20.95;;;14.27;;
56712;SDS011;42589;45.536;9.032;2023-03-23T02:51:11;24.63;;;14.55;;
56712;SDS011;42589;45.536;9.032;2023-03-23T02:54:13;25.70;;;14.73;;
56712;SDS011;42589;45.536;9.032;2023-03-23T02:57:18;18.05;;;13.65;;
56712;SDS011;42589;45.536;9.032;2023-03-23T03:00:20;19.25;;;13.80;;
56712;SDS011;42589;45.536;9.032;2023-03-23T03:03:21;16.95;;;12.52;;
56712;SDS011;42589;45.536;9.032;2023-03-23T03:19:22;19.20;;;13.45;;
56712;SDS011;42589;45.536;9.032;2023-03-23T03:22:27;19.98;;;13.82;;
56712;SDS011;42589;45.536;9.032;2023-03-23T03:25:29;21.05;;;14.95;;
56712;SDS011;42589;45.536;9.032;2023-03-23T03:28:31;20.63;;;13.75;;
56712;SDS011;42589;45.536;9.032;2023-03-23T03:31:35;21.50;;;14.68;;
56712;SDS011;42589;45.536;9.032;2023-03-23T03:34:38;19.45;;;14.70;;
56712;SDS011;42589;45.536;9.032;2023-03-23T03:37:39;20.63;;;15.13;;
56712;SDS011;42589;45.536;9.032;2023-03-23T03:40:40;22.88;;;15.07;;
56712;SDS011;42589;45.536;9.032;2023-03-23T03:43:41;24.25;;;15.50;;
56712;SDS011;42589;45.536;9.032;2023-03-23T03:46:43;22.27;;;16.42;;
56712;SDS011;42589;45.536;9.032;2023-03-23T03:49:43;21.77;;;16.25;;
56712;SDS011;42589;45.536;9.032;2023-03-23T03:52:44;22.80;;;16.40;;
56712;SDS011;42589;45.536;9.032;2023-03-23T03:55:45;22.58;;;17.30;;
56712;SDS011;42589;45.536;9.032;2023-03-23T03:58:49;25.80;;;17.95;;
56712;SDS011;42589;45.536;9.032;2023-03-23T04:01:50;21.52;;;16.05;;
56712;SDS011;42589;45.536;9.032;2023-03-23T04:04:54;23.23;;;17.60;;
56712;SDS011;42589;45.536;9.032;2023-03-23T04:07:54;24.55;;;17.65;;
56712;SDS011;42589;45.536;9.032;2023-03-23T04:11:01;23.35;;;17.25;;
56712;SDS011;42589;45.536;9.032;2023-03-23T04:14:02;24.83;;;17.92;;
56712;SDS011;42589;45.536;9.032;2023-03-23T04:17:03;25.50;;;17.98;;
56712;SDS011;42589;45.536;9.032;2023-03-23T04:20:04;20.80;;;16.80;;
56712;SDS011;42589;45.536;9.032;2023-03-23T04:23:08;26.20;;;17.45;;
56712;SDS011;42589;45.536;9.032;2023-03-23T04:26:15;27.27;;;17.08;;
56712;SDS011;42589;45.536;9.032;2023-03-23T04:29:16;24.17;;;17.48;;
56712;SDS011;42589;45.536;9.032;2023-03-23T04:32:17;20.42;;;17.10;;
56712;SDS011;42589;45.536;9.032;2023-03-23T04:35:19;21.08;;;17.52;;
56712;SDS011;42589;45.536;9.032;2023-03-23T04:38:20;23.92;;;17.95;;
56712;SDS011;42589;45.536;9.032;2023-03-23T04:41:23;23.70;;;17.90;;
56712;SDS011;42589;45.536;9.032;2023-03-23T04:44:24;27.70;;;16.92;;
56712;SDS011;42589;45.536;9.032;2023-03-23T04:47:27;23.70;;;17.30;;
56712;SDS011;42589;45.536;9.032;2023-03-23T04:50:32;30.25;;;18.10;;
56712;SDS011;42589;45.536;9.032;2023-03-23T04:53:33;24.85;;;18.48;;
56712;SDS011;42589;45.536;9.032;2023-03-23T04:56:34;31.70;;;18.30;;
56712;SDS011;42589;45.536;9.032;2023-03-23T04:59:36;30.98;;;18.42;;
56712;SDS011;42589;45.536;9.032;2023-03-23T05:02:37;28.17;;;17.85;;
56712;SDS011;42589;45.536;9.032;2023-03-23T05:05:39;31.10;;;18.10;;
56712;SDS011;42589;45.536;9.032;2023-03-23T05:08:40;23.02;;;16.83;;
56712;SDS011;42589;45.536;9.032;2023-03-23T05:11:40;26.20;;;18.15;;
56712;SDS011;42589;45.536;9.032;2023-03-23T05:14:42;22.20;;;17.27;;
56712;SDS011;42589;45.536;9.032;2023-03-23T05:17:43;21.65;;;17.27;;
56712;SDS011;42589;45.536;9.032;2023-03-23T05:20:48;21.73;;;16.85;;
56712;SDS011;42589;45.536;9.032;2023-03-23T05:23:52;26.92;;;18.25;;
56712;SDS011;42589;45.536;9.032;2023-03-23T05:26:54;23.58;;;17.70;;
56712;SDS011;42589;45.536;9.032;2023-03-23T05:29:56;23.60;;;17.20;;
56712;SDS011;42589;45.536;9.032;2023-03-23T05:32:58;27.50;;;17.73;;
56712;SDS011;42589;45.536;9.032;2023-03-23T05:35:59;19.55;;;15.60;;
56712;SDS011;42589;45.536;9.032;2023-03-23T05:39:00;29.10;;;18.52;;
56712;SDS011;42589;45.536;9.032;2023-03-23T05:42:03;25.88;;;18.15;;
56712;SDS011;42589;45.536;9.032;2023-03-23T05:45:04;29.08;;;17.83;;
56712;SDS011;42589;45.536;9.032;2023-03-23T05:48:06;27.35;;;17.83;;
56712;SDS011;42589;45.536;9.032;2023-03-23T05:51:09;32.88;;;18.30;;
56712;SDS011;42589;45.536;9.032;2023-03-23T05:54:09;29.88;;;17.67;;
56712;SDS011;42589;45.536;9.032;2023-03-23T05:57:10;25.35;;;18.45;;
56712;SDS011;42589;45.536;9.032;2023-03-23T06:00:14;27.20;;;17.10;;
56712;SDS011;42589;45.536;9.032;2023-03-23T06:03:19;24.20;;;16.75;;
56712;SDS011;42589;45.536;9.032;2023-03-23T06:06:22;27.67;;;16.70;;
56712;SDS011;42589;45.536;9.032;2023-03-23T06:09:23;21.27;;;16.55;;
56712;SDS011;42589;45.536;9.032;2023-03-23T06:12:25;21.98;;;15.02;;
56712;SDS011;42589;45.536;9.032;2023-03-23T06:15:26;21.20;;;15.57;;
56712;SDS011;42589;45.536;9.032;2023-03-23T06:18:29;22.52;;;16.02;;
56712;SDS011;42589;45.536;9.032;2023-03-23T06:21:33;20.20;;;16.05;;
56712;SDS011;42589;45.536;9.032;2023-03-23T06:24:34;21.75;;;16.10;;
56712;SDS011;42589;45.536;9.032;2023-03-23T06:27:35;22.67;;;16.10;;
56712;SDS011;42589;45.536;9.032;2023-03-23T06:30:36;18.17;;;15.63;;
56712;SDS011;42589;45.536;9.032;2023-03-23T06:33:37;26.42;;;17.70;;
56712;SDS011;42589;45.536;9.032;2023-03-23T06:36:39;21.92;;;16.58;;
56712;SDS011;42589;45.536;9.032;2023-03-23T06:39:40;21.77;;;15.63;;
56712;SDS011;42589;45.536;9.032;2023-03-23T06:42:41;20.27;;;15.98;;
56712;SDS011;42589;45.536;9.032;2023-03-23T06:45:42;18.25;;;15.20;;
56712;SDS011;42589;45.536;9.032;2023-03-23T06:48:44;21.42;;;15.35;;
56712;SDS011;42589;45.536;9.032;2023-03-23T06:51:45;16.95;;;15.15;;
56712;SDS011;42589;45.536;9.032;2023-03-23T06:54:49;18.63;;;15.93;;
56712;SDS011;42589;45.536;9.032;2023-03-23T06:57:51;20.25;;;16.63;;
56712;SDS011;42589;45.536;9.032;2023-03-23T07:00:53;20.00;;;16.48;;
56712;SDS011;42589;45.536;9.032;2023-03-23T07:03:56;17.80;;;15.90;;
56712;SDS011;42589;45.536;9.032;2023-03-23T07:06:57;22.35;;;17.05;;
56712;SDS011;42589;45.536;9.032;2023-03-23T07:09:58;22.95;;;16.98;;
56712;SDS011;42589;45.536;9.032;2023-03-23T07:12:59;21.08;;;16.95;;
56712;SDS011;42589;45.536;9.032;2023-03-23T07:16:06;20.13;;;17.60;;
56712;SDS011;42589;45.536;9.032;2023-03-23T07:19:08;19.33;;;17.20;;
56712;SDS011;42589;45.536;9.032;2023-03-23T07:22:09;21.98;;;17.45;;
56712;SDS011;42589;45.536;9.032;2023-03-23T07:25:14;21.30;;;18.55;;
56712;SDS011;42589;45.536;9.032;2023-03-23T07:28:15;18.35;;;16.40;;
56712;SDS011;42589;45.536;9.032;2023-03-23T07:31:16;18.10;;;15.60;;
56712;SDS011;42589;45.536;9.032;2023-03-23T07:34:17;23.05;;;17.08;;
56712;SDS011;42589;45.536;9.032;2023-03-23T07:37:19;17.90;;;16.05;;
56712;SDS011;42589;45.536;9.032;2023-03-23T07:40:20;18.45;;;15.95;;
56712;SDS011;42589;45.536;9.032;2023-03-23T07:43:21;19.73;;;14.32;;
56712;SDS011;42589;45.536;9.032;2023-03-23T07:46:22;17.67;;;14.60;;
56712;SDS011;42589;45.536;9.032;2023-03-23T07:49:23;17.17;;;14.98;;
56712;SDS011;42589;45.536;9.032;2023-03-23T07:52:24;19.17;;;15.07;;
56712;SDS011;42589;45.536;9.032;2023-03-23T07:55:25;18.60;;;15.00;;
56712;SDS011;42589;45.536;9.032;2023-03-23T07:58:27;19.10;;;15.25;;
56712;SDS011;42589;45.536;9.032;2023-03-23T08:01:28;15.63;;;13.88;;
56712;SDS011;42589;45.536;9.032;2023-03-23T08:04:29;13.85;;;12.43;;
56712;SDS011;42589;45.536;9.032;2023-03-23T08:07:36;14.10;;;11.75;;
56712;SDS011;42589;45.536;9.032;2023-03-23T08:10:38;14.25;;;11.93;;
56712;SDS011;42589;45.536;9.032;2023-03-23T08:13:38;14.73;;;13.10;;
56712;SDS011;42589;45.536;9.032;2023-03-23T08:16:40;16.80;;;12.88;;
56712;SDS011;42589;45.536;9.032;2023-03-23T08:19:41;19.02;;;14.63;;
56712;SDS011;42589;45.536;9.032;2023-03-23T08:22:43;14.70;;;12.90;;
56712;SDS011;42589;45.536;9.032;2023-03-23T08:25:46;15.30;;;12.43;;
56712;SDS011;42589;45.536;9.032;2023-03-23T08:28:48;14.95;;;11.85;;
56712;SDS011;42589;45.536;9.032;2023-03-23T08:31:49;15.27;;;11.57;;
56712;SDS011;42589;45.536;9.032;2023-03-23T08:34:50;16.02;;;11.27;;
56712;SDS011;42589;45.536;9.032;2023-03-23T08:37:51;16.40;;;11.70;;
56712;SDS011;42589;45.536;9.032;2023-03-23T08:41:14;18.67;;;11.95;;
56712;SDS011;42589;45.536;9.032;2023-03-23T08:44:14;12.90;;;11.20;;
56712;SDS011;42589;45.536;9.032;2023-03-23T08:47:15;14.70;;;11.02;;
56712;SDS011;42589;45.536;9.032;2023-03-23T08:50:16;12.68;;;11.38;;
56712;SDS011;42589;45.536;9.032;2023-03-23T08:53:19;12.40;;;10.80;;
56712;SDS011;42589;45.536;9.032;2023-03-23T08:56:23;14.80;;;11.03;;
56712;SDS011;42589;45.536;9.032;2023-03-23T08:59:24;13.82;;;10.05;;
56712;SDS011;42589;45.536;9.032;2023-03-23T09:02:26;12.45;;;9.73;;
56712;SDS011;42589;45.536;9.032;2023-03-23T09:05:27;11.63;;;9.48;;
56712;SDS011;42589;45.536;9.032;2023-03-23T09:08:29;13.48;;;10.55;;
56712;SDS011;42589;45.536;9.032;2023-03-23T09:11:30;12.35;;;10.05;;
56712;SDS011;42589;45.536;9.032;2023-03-23T09:14:32;10.70;;;8.80;;
56712;SDS011;42589;45.536;9.032;2023-03-23T09:17:45;10.95;;;9.00;;
56712;SDS011;42589;45.536;9.032;2023-03-23T09:20:49;16.10;;;9.98;;
56712;SDS011;42589;45.536;9.032;2023-03-23T09:23:50;11.82;;;8.85;;
56712;SDS011;42589;45.536;9.032;2023-03-23T09:26:51;12.35;;;9.88;;
56712;SDS011;42589;45.536;9.032;2023-03-23T09:29:52;16.33;;;10.15;;
56712;SDS011;42589;45.536;9.032;2023-03-23T09:32:55;20.67;;;11.70;;
56712;SDS011;42589;45.536;9.032;2023-03-23T09:35:57;20.10;;;10.70;;
56712;SDS011;42589;45.536;9.032;2023-03-23T09:38:58;14.43;;;11.57;;
56712;SDS011;42589;45.536;9.032;2023-03-23T09:42:04;12.65;;;11.27;;
56712;SDS011;42589;45.536;9.032;2023-03-23T09:57:56;14.60;;;11.48;;
56712;SDS011;42589;45.536;9.032;2023-03-23T10:01:15;13.38;;;11.75;;
56712;SDS011;42589;45.536;9.032;2023-03-23T10:04:29;16.73;;;12.45;;
56712;SDS011;42589;45.536;9.032;2023-03-23T10:07:31;14.23;;;11.85;;
56712;SDS011;42589;45.536;9.032;2023-03-23T10:10:58;18.10;;;12.00;;
56712;SDS011;42589;45.536;9.032;2023-03-23T10:14:19;15.75;;;12.52;;
56712;SDS011;42589;45.536;9.032;2023-03-23T10:17:25;15.75;;;12.45;;
56712;SDS011;42589;45.536;9.032;2023-03-23T10:20:57;14.15;;;12.50;;
56712;SDS011;42589;45.536;9.032;2023-03-23T10:24:00;17.48;;;12.90;;
56712;SDS011;42589;45.536;9.032;2023-03-23T10:27:19;15.32;;;12.90;;
56712;SDS011;42589;45.536;9.032;2023-03-23T10:30:36;17.42;;;13.48;;
56712;SDS011;42589;45.536;9.032;2023-03-23T10:33:41;18.88;;;13.57;;
56712;SDS011;42589;45.536;9.032;2023-03-23T10:37:01;17.80;;;12.88;;
56712;SDS011;42589;45.536;9.032;2023-03-23T10:40:21;16.77;;;13.00;;
56712;SDS011;42589;45.536;9.032;2023-03-23T10:43:26;17.67;;;13.23;;
56712;SDS011;42589;45.536;9.032;2023-03-23T10:49:49;18.45;;;13.80;;
56712;SDS011;42589;45.536;9.032;2023-03-23T10:52:54;19.92;;;14.13;;
56712;SDS011;42589;45.536;9.032;2023-03-23T10:55:57;19.05;;;14.00;;
56712;SDS011;42589;45.536;9.032;2023-03-23T10:59:11;17.92;;;14.25;;
56712;SDS011;42589;45.536;9.032;2023-03-23T11:02:20;18.80;;;13.60;;
56712;SDS011;42589;45.536;9.032;2023-03-23T11:05:26;23.13;;;15.60;;
56712;SDS011;42589;45.536;9.032;2023-03-23T11:08:54;19.60;;;16.30;;
56712;SDS011;42589;45.536;9.032;2023-03-23T11:12:04;18.98;;;15.10;;
56712;SDS011;42589;45.536;9.032;2023-03-23T11:15:20;19.45;;;16.13;;
56712;SDS011;42589;45.536;9.032;2023-03-23T11:18:26;19.17;;;15.65;;
56712;SDS011;42589;45.536;9.032;2023-03-23T11:21:34;19.45;;;15.63;;
56712;SDS011;42589;45.536;9.032;2023-03-23T11:24:37;21.73;;;15.73;;
56712;SDS011;42589;45.536;9.032;2023-03-23T11:27:41;19.00;;;15.25;;
56712;SDS011;42589;45.536;9.032;2023-03-23T11:30:43;17.40;;;14.80;;
56712;SDS011;42589;45.536;9.032;2023-03-23T11:36:49;20.50;;;15.45;;
56712;SDS011;42589;45.536;9.032;2023-03-23T11:39:58;16.45;;;13.32;;
56712;SDS011;42589;45.536;9.032;2023-03-23T11:43:14;17.42;;;13.85;;
56712;SDS011;42589;45.536;9.032;2023-03-23T11:46:39;16.92;;;13.70;;
56712;SDS011;42589;45.536;9.032;2023-03-23T11:52:55;15.05;;;13.38;;
56712;SDS011;42589;45.536;9.032;2023-03-23T11:59:16;16.05;;;12.85;;
56712;SDS011;42589;45.536;9.032;2023-03-23T12:02:26;14.15;;;12.02;;
56712;SDS011;42589;45.536;9.032;2023-03-23T12:12:30;16.08;;;13.80;;
56712;SDS011;42589;45.536;9.032;2023-03-23T12:22:18;15.32;;;13.18;;
56712;SDS011;42589;45.536;9.032;2023-03-23T12:32:46;17.65;;;14.48;;
56712;SDS011;42589;45.536;9.032;2023-03-23T12:36:11;16.55;;;13.68;;
56712;SDS011;42589;45.536;9.032;2023-03-23T12:42:47;17.33;;;12.95;;
56712;SDS011;42589;45.536;9.032;2023-03-23T12:49:15;17.67;;;13.40;;
56712;SDS011;42589;45.536;9.032;2023-03-23T12:59:52;16.77;;;13.90;;
56712;SDS011;42589;45.536;9.032;2023-03-23T13:02:40;14.55;;;12.50;;
56712;SDS011;42589;45.536;9.032;2023-03-23T13:09:01;16.60;;;11.23;;
56712;SDS011;42589;45.536;9.032;2023-03-23T13:12:10;18.65;;;11.75;;
56712;SDS011;42589;45.536;9.032;2023-03-23T13:15:18;13.15;;;10.73;;
56712;SDS011;42589;45.536;9.032;2023-03-23T13:18:30;12.63;;;11.23;;
56712;SDS011;42589;45.536;9.032;2023-03-23T13:25:00;13.63;;;10.43;;
56712;SDS011;42589;45.536;9.032;2023-03-23T13:28:04;13.73;;;10.55;;
56712;SDS011;42589;45.536;9.032;2023-03-23T13:31:14;13.82;;;10.48;;
56712;SDS011;42589;45.536;9.032;2023-03-23T13:34:29;13.35;;;9.32;;
56712;SDS011;42589;45.536;9.032;2023-03-23T13:37:31;12.48;;;9.38;;
56712;SDS011;42589;45.536;9.032;2023-03-23T13:40:33;13.45;;;9.38;;
56712;SDS011;42589;45.536;9.032;2023-03-23T13:43:34;13.23;;;8.70;;
56712;SDS011;42589;45.536;9.032;2023-03-23T13:46:36;13.25;;;9.25;;
56712;SDS011;42589;45.536;9.032;2023-03-23T13:49:45;13.82;;;9.80;;
56712;SDS011;42589;45.536;9.032;2023-03-23T13:53:12;15.88;;;10.80;;
56712;SDS011;42589;45.536;9.032;2023-03-23T13:59:35;15.40;;;9.07;;
56712;SDS011;42589;45.536;9.032;2023-03-23T14:02:46;17.13;;;9.73;;
56712;SDS011;42589;45.536;9.032;2023-03-23T14:08:49;15.07;;;10.55;;
56712;SDS011;42589;45.536;9.032;2023-03-23T14:11:57;12.93;;;8.70;;
56712;SDS011;42589;45.536;9.032;2023-03-23T14:15:03;15.13;;;9.85;;
56712;SDS011;42589;45.536;9.032;2023-03-23T14:18:06;12.48;;;9.73;;
56712;SDS011;42589;45.536;9.032;2023-03-23T14:21:13;11.00;;;9.25;;
56712;SDS011;42589;45.536;9.032;2023-03-23T14:24:23;14.70;;;9.40;;
56712;SDS011;42589;45.536;9.032;2023-03-23T14:27:28;14.45;;;9.88;;
56712;SDS011;42589;45.536;9.032;2023-03-23T14:30:34;12.40;;;9.02;;
56712;SDS011;42589;45.536;9.032;2023-03-23T14:33:37;14.80;;;9.18;;
56712;SDS011;42589;45.536;9.032;2023-03-23T14:36:40;13.30;;;9.95;;
56712;SDS011;42589;45.536;9.032;2023-03-23T14:39:44;11.30;;;9.52;;
56712;SDS011;42589;45.536;9.032;2023-03-23T14:42:47;10.48;;;9.00;;
56712;SDS011;42589;45.536;9.032;2023-03-23T14:45:52;15.05;;;9.80;;
56712;SDS011;42589;45.536;9.032;2023-03-23T14:48:54;10.95;;;9.40;;
56712;SDS011;42589;45.536;9.032;2023-03-23T14:51:55;14.75;;;10.07;;
56712;SDS011;42589;45.536;9.032;2023-03-23T14:55:07;13.68;;;10.05;;
56712;SDS011;42589;45.536;9.032;2023-03-23T14:58:13;11.43;;;9.05;;
56712;SDS011;42589;45.536;9.032;2023-03-23T15:01:19;11.60;;;8.27;;
56712;SDS011;42589;45.536;9.032;2023-03-23T15:04:24;14.02;;;9.48;;
56712;SDS011;42589;45.536;9.032;2023-03-23T15:07:31;15.25;;;9.75;;
56712;SDS011;42589;45.536;9.032;2023-03-23T15:10:34;13.30;;;9.23;;
56712;SDS011;42589;45.536;9.032;2023-03-23T15:13:35;10.27;;;9.18;;
56712;SDS011;42589;45.536;9.032;2023-03-23T15:16:37;15.63;;;9.15;;
56712;SDS011;42589;45.536;9.032;2023-03-23T15:22:45;9.30;;;8.07;;
56712;SDS011;42589;45.536;9.032;2023-03-23T15:25:51;15.98;;;9.27;;
56712;SDS011;42589;45.536;9.032;2023-03-23T15:32:23;8.93;;;7.00;;
56712;SDS011;42589;45.536;9.032;2023-03-23T15:35:25;7.55;;;6.55;;
56712;SDS011;42589;45.536;9.032;2023-03-23T15:38:30;8.40;;;5.75;;
56712;SDS011;42589;45.536;9.032;2023-03-23T15:41:33;10.25;;;6.43;;
56712;SDS011;42589;45.536;9.032;2023-03-23T15:44:34;9.27;;;7.13;;
56712;SDS011;42589;45.536;9.032;2023-03-23T15:47:43;8.63;;;7.07;;
56712;SDS011;42589;45.536;9.032;2023-03-23T15:50:47;10.30;;;7.88;;
56712;SDS011;42589;45.536;9.032;2023-03-23T15:53:50;11.70;;;7.30;;
56712;SDS011;42589;45.536;9.032;2023-03-23T15:56:51;9.82;;;7.10;;
56712;SDS011;42589;45.536;9.032;2023-03-23T15:59:52;12.48;;;8.10;;
56712;SDS011;42589;45.536;9.032;2023-03-23T16:02:53;14.13;;;8.07;;
56712;SDS011;42589;45.536;9.032;2023-03-23T16:06:15;10.25;;;8.35;;
56712;SDS011;42589;45.536;9.032;2023-03-23T16:09:19;12.40;;;8.70;;
56712;SDS011;42589;45.536;9.032;2023-03-23T16:12:19;11.35;;;8.70;;
56712;SDS011;42589;45.536;9.032;2023-03-23T16:15:20;10.85;;;8.30;;
56712;SDS011;42589;45.536;9.032;2023-03-23T16:18:21;10.95;;;7.18;;
56712;SDS011;42589;45.536;9.032;2023-03-23T16:21:22;10.70;;;7.90;;
56712;SDS011;42589;45.536;9.032;2023-03-23T16:24:23;13.50;;;8.73;;
56712;SDS011;42589;45.536;9.032;2023-03-23T16:27:24;12.80;;;8.40;;
56712;SDS011;42589;45.536;9.032;2023-03-23T16:30:26;12.30;;;8.82;;
56712;SDS011;42589;45.536;9.032;2023-03-23T16:33:29;12.80;;;8.50;;
56712;SDS011;42589;45.536;9.032;2023-03-23T16:36:29;12.40;;;8.90;;
56712;SDS011;42589;45.536;9.032;2023-03-23T16:39:31;15.82;;;8.75;;
56712;SDS011;42589;45.536;9.032;2023-03-23T16:42:32;16.33;;;9.40;;
56712;SDS011;42589;45.536;9.032;2023-03-23T16:45:33;10.35;;;8.27;;
56712;SDS011;42589;45.536;9.032;2023-03-23T16:48:34;12.90;;;8.65;;
56712;SDS011;42589;45.536;9.032;2023-03-23T16:51:36;12.60;;;8.23;;
56712;SDS011;42589;45.536;9.032;2023-03-23T16:54:37;12.40;;;8.95;;
56712;SDS011;42589;45.536;9.032;2023-03-23T16:57:39;16.23;;;9.07;;
56712;SDS011;42589;45.536;9.032;2023-03-23T17:00:40;12.90;;;8.82;;
56712;SDS011;42589;45.536;9.032;2023-03-23T17:03:41;13.23;;;9.27;;
56712;SDS011;42589;45.536;9.032;2023-03-23T17:06:42;15.70;;;8.85;;
56712;SDS011;42589;45.536;9.032;2023-03-23T17:09:44;12.68;;;8.90;;
56712;SDS011;42589;45.536;9.032;2023-03-23T17:12:45;13.05;;;8.73;;
56712;SDS011;42589;45.536;9.032;2023-03-23T17:15:46;9.77;;;7.72;;
56712;SDS011;42589;45.536;9.032;2023-03-23T17:18:52;10.30;;;7.20;;
56712;SDS011;42589;45.536;9.032;2023-03-23T17:21:53;9.73;;;7.65;;
56712;SDS011;42589;45.536;9.032;2023-03-23T17:24:54;10.23;;;6.93;;
56712;SDS011;42589;45.536;9.032;2023-03-23T17:27:56;11.13;;;7.50;;
56712;SDS011;42589;45.536;9.032;2023-03-23T17:30:57;12.18;;;7.15;;
56712;SDS011;42589;45.536;9.032;2023-03-23T17:33:58;10.15;;;6.88;;
56712;SDS011;42589;45.536;9.032;2023-03-23T17:36:59;9.50;;;6.93;;
56712;SDS011;42589;45.536;9.032;2023-03-23T17:40:06;10.15;;;6.55;;
56712;SDS011;42589;45.536;9.032;2023-03-23T17:43:09;11.02;;;6.90;;
56712;SDS011;42589;45.536;9.032;2023-03-23T17:46:10;11.35;;;5.97;;
56712;SDS011;42589;45.536;9.032;2023-03-23T17:49:11;12.05;;;5.78;;
56712;SDS011;42589;45.536;9.032;2023-03-23T17:52:12;18.40;;;7.50;;
56712;SDS011;42589;45.536;9.032;2023-03-23T17:55:13;10.52;;;6.40;;
56712;SDS011;42589;45.536;9.032;2023-03-23T17:58:14;9.85;;;5.53;;
56712;SDS011;42589;45.536;9.032;2023-03-23T18:01:15;9.38;;;5.70;;
56712;SDS011;42589;45.536;9.032;2023-03-23T18:04:16;7.97;;;5.47;;
56712;SDS011;42589;45.536;9.032;2023-03-23T18:07:17;7.10;;;5.32;;
56712;SDS011;42589;45.536;9.032;2023-03-23T18:10:22;7.82;;;5.20;;
56712;SDS011;42589;45.536;9.032;2023-03-23T18:13:24;8.27;;;5.70;;
56712;SDS011;42589;45.536;9.032;2023-03-23T18:16:25;9.65;;;5.40;;
56712;SDS011;42589;45.536;9.032;2023-03-23T18:19:26;6.82;;;5.28;;
56712;SDS011;42589;45.536;9.032;2023-03-23T18:22:27;6.65;;;5.25;;
56712;SDS011;42589;45.536;9.032;2023-03-23T18:25:31;8.93;;;5.20;;
56712;SDS011;42589;45.536;9.032;2023-03-23T18:28:32;8.40;;;5.07;;
56712;SDS011;42589;45.536;9.032;2023-03-23T18:31:33;8.75;;;6.00;;
56712;SDS011;42589;45.536;9.032;2023-03-23T18:34:39;6.15;;;4.60;;
56712;SDS011;42589;45.536;9.032;2023-03-23T18:37:40;9.75;;;5.28;;
56712;SDS011;42589;45.536;9.032;2023-03-23T18:40:43;9.60;;;4.97;;
56712;SDS011;42589;45.536;9.032;2023-03-23T18:43:44;7.32;;;5.22;;
56712;SDS011;42589;45.536;9.032;2023-03-23T18:46:45;10.45;;;6.07;;
56712;SDS011;42589;45.536;9.032;2023-03-23T18:49:46;9.85;;;5.45;;
56712;SDS011;42589;45.536;9.032;2023-03-23T18:52:50;10.35;;;5.95;;
56712;SDS011;42589;45.536;9.032;2023-03-23T18:55:50;10.10;;;6.25;;
56712;SDS011;42589;45.536;9.032;2023-03-23T18:58:52;10.05;;;5.95;;
56712;SDS011;42589;45.536;9.032;2023-03-23T19:01:53;7.43;;;6.22;;
56712;SDS011;42589;45.536;9.032;2023-03-23T19:04:54;9.50;;;6.60;;
56712;SDS011;42589;45.536;9.032;2023-03-23T19:07:59;9.27;;;6.18;;
56712;SDS011;42589;45.536;9.032;2023-03-23T19:11:01;8.55;;;6.80;;
56712;SDS011;42589;45.536;9.032;2023-03-23T19:14:03;8.43;;;6.13;;
56712;SDS011;42589;45.536;9.032;2023-03-23T19:17:04;8.18;;;6.43;;
56712;SDS011;42589;45.536;9.032;2023-03-23T19:20:06;9.88;;;6.45;;
56712;SDS011;42589;45.536;9.032;2023-03-23T19:23:09;8.10;;;6.15;;
56712;SDS011;42589;45.536;9.032;2023-03-23T19:26:15;10.40;;;6.68;;
56712;SDS011;42589;45.536;9.032;2023-03-23T19:29:21;8.88;;;7.20;;
56712;SDS011;42589;45.536;9.032;2023-03-23T19:32:22;8.65;;;6.60;;
56712;SDS011;42589;45.536;9.032;2023-03-23T19:35:23;8.40;;;6.70;;
56712;SDS011;42589;45.536;9.032;2023-03-23T19:38:25;10.70;;;7.13;;
56712;SDS011;42589;45.536;9.032;2023-03-23T19:41:27;9.18;;;7.38;;
56712;SDS011;42589;45.536;9.032;2023-03-23T19:44:27;8.55;;;7.65;;
56712;SDS011;42589;45.536;9.032;2023-03-23T19:47:28;10.73;;;7.38;;
56712;SDS011;42589;45.536;9.032;2023-03-23T19:50:29;10.82;;;8.00;;
56712;SDS011;42589;45.536;9.032;2023-03-23T19:53:32;13.05;;;7.80;;